sensor_id;sensor_type;location;lat;lon;timestamp;temperature;humidity
21637;DHT22;10980;49.596;6.142;2022-08-14T00:00:50;22.00;58.20
21637;DHT22;10980;49.596;6.142;2022-08-14T00:04:12;21.80;58.20
21637;DHT22;10980;49.596;6.142;2022-08-14T00:07:53;21.90;58.00
21637;DHT22;10980;49.596;6.142;2022-08-14T00:11:16;22.00;58.60
21637;DHT22;10980;49.596;6.142;2022-08-14T00:14:38;22.10;57.90
21637;DHT22;10980;49.596;6.142;2022-08-14T00:18:01;21.80;58.50
21637;DHT22;10980;49.596;6.142;2022-08-14T00:21:27;21.80;58.40
21637;DHT22;10980;49.596;6.142;2022-08-14T00:24:51;22.00;58.30
21637;DHT22;10980;49.596;6.142;2022-08-14T00:28:13;21.70;58.80
21637;DHT22;10980;49.596;6.142;2022-08-14T00:31:39;21.60;59.30
21637;DHT22;10980;49.596;6.142;2022-08-14T00:35:07;21.40;60.10
21637;DHT22;10980;49.596;6.142;2022-08-14T00:38:33;21.20;60.70
21637;DHT22;10980;49.596;6.142;2022-08-14T00:41:55;21.30;60.00
21637;DHT22;10980;49.596;6.142;2022-08-14T00:45:18;21.20;60.00
21637;DHT22;10980;49.596;6.142;2022-08-14T00:48:42;21.30;60.50
21637;DHT22;10980;49.596;6.142;2022-08-14T00:52:14;21.30;60.50
21637;DHT22;10980;49.596;6.142;2022-08-14T00:55:39;21.10;61.20
21637;DHT22;10980;49.596;6.142;2022-08-14T00:59:03;21.00;61.90
21637;DHT22;10980;49.596;6.142;2022-08-14T01:02:26;20.80;62.60
21637;DHT22;10980;49.596;6.142;2022-08-14T01:05:52;20.60;63.20
21637;DHT22;10980;49.596;6.142;2022-08-14T01:09:18;20.50;63.70
21637;DHT22;10980;49.596;6.142;2022-08-14T01:12:43;20.40;63.60
21637;DHT22;10980;49.596;6.142;2022-08-14T01:16:12;20.30;64.90
21637;DHT22;10980;49.596;6.142;2022-08-14T01:19:35;20.40;64.00
21637;DHT22;10980;49.596;6.142;2022-08-14T01:23:16;20.20;64.20
21637;DHT22;10980;49.596;6.142;2022-08-14T01:26:40;20.20;64.00
21637;DHT22;10980;49.596;6.142;2022-08-14T01:30:11;20.40;63.10
21637;DHT22;10980;49.596;6.142;2022-08-14T01:33:38;20.30;63.10
21637;DHT22;10980;49.596;6.142;2022-08-14T01:37:25;20.20;63.90
21637;DHT22;10980;49.596;6.142;2022-08-14T01:40:46;20.20;63.90
21637;DHT22;10980;49.596;6.142;2022-08-14T01:44:12;20.20;63.50
21637;DHT22;10980;49.596;6.142;2022-08-14T01:47:54;20.20;63.90
21637;DHT22;10980;49.596;6.142;2022-08-14T01:51:25;20.30;63.80
21637;DHT22;10980;49.596;6.142;2022-08-14T01:54:49;19.90;65.50
21637;DHT22;10980;49.596;6.142;2022-08-14T01:58:19;19.90;65.70
21637;DHT22;10980;49.596;6.142;2022-08-14T02:01:52;19.80;66.10
21637;DHT22;10980;49.596;6.142;2022-08-14T02:05:19;19.80;65.90
21637;DHT22;10980;49.596;6.142;2022-08-14T02:08:42;19.60;66.60
21637;DHT22;10980;49.596;6.142;2022-08-14T02:12:15;19.50;67.10
21637;DHT22;10980;49.596;6.142;2022-08-14T02:15:46;19.40;66.80
21637;DHT22;10980;49.596;6.142;2022-08-14T02:19:13;19.50;66.40
21637;DHT22;10980;49.596;6.142;2022-08-14T02:22:35;19.50;66.20
21637;DHT22;10980;49.596;6.142;2022-08-14T02:26:25;19.50;66.00
21637;DHT22;10980;49.596;6.142;2022-08-14T02:29:51;19.30;66.10
21637;DHT22;10980;49.596;6.142;2022-08-14T02:33:22;19.40;66.00
21637;DHT22;10980;49.596;6.142;2022-08-14T02:36:47;19.40;66.50
21637;DHT22;10980;49.596;6.142;2022-08-14T02:40:26;19.50;65.90
21637;DHT22;10980;49.596;6.142;2022-08-14T02:43:53;19.30;66.50
21637;DHT22;10980;49.596;6.142;2022-08-14T02:47:21;19.30;66.60
21637;DHT22;10980;49.596;6.142;2022-08-14T02:50:43;19.30;67.20
21637;DHT22;10980;49.596;6.142;2022-08-14T02:54:12;19.30;67.10
21637;DHT22;10980;49.596;6.142;2022-08-14T02:57:41;19.20;67.60
21637;DHT22;10980;49.596;6.142;2022-08-14T03:01:05;19.20;67.00
21637;DHT22;10980;49.596;6.142;2022-08-14T03:04:28;19.10;66.80
21637;DHT22;10980;49.596;6.142;2022-08-14T03:07:51;18.90;66.90
21637;DHT22;10980;49.596;6.142;2022-08-14T03:11:16;18.90;67.20
21637;DHT22;10980;49.596;6.142;2022-08-14T03:14:39;18.70;67.60
21637;DHT22;10980;49.596;6.142;2022-08-14T03:18:12;18.90;67.50
21637;DHT22;10980;49.596;6.142;2022-08-14T03:21:39;18.80;67.30
21637;DHT22;10980;49.596;6.142;2022-08-14T03:25:01;18.80;67.60
21637;DHT22;10980;49.596;6.142;2022-08-14T03:28:30;18.70;68.00
21637;DHT22;10980;49.596;6.142;2022-08-14T03:31:54;18.40;68.40
21637;DHT22;10980;49.596;6.142;2022-08-14T03:35:16;18.50;68.40
21637;DHT22;10980;49.596;6.142;2022-08-14T03:38:42;18.60;68.10
21637;DHT22;10980;49.596;6.142;2022-08-14T03:42:23;18.50;68.70
21637;DHT22;10980;49.596;6.142;2022-08-14T03:45:56;18.40;69.00
21637;DHT22;10980;49.596;6.142;2022-08-14T03:49:21;18.30;70.20
21637;DHT22;10980;49.596;6.142;2022-08-14T03:52:49;18.30;70.80
21637;DHT22;10980;49.596;6.142;2022-08-14T03:56:17;18.10;71.80
21637;DHT22;10980;49.596;6.142;2022-08-14T03:59:42;18.20;71.90
21637;DHT22;10980;49.596;6.142;2022-08-14T04:03:06;18.00;73.00
21637;DHT22;10980;49.596;6.142;2022-08-14T04:06:28;18.00;72.70
21637;DHT22;10980;49.596;6.142;2022-08-14T04:09:52;18.00;72.50
21637;DHT22;10980;49.596;6.142;2022-08-14T04:13:19;18.00;72.30
21637;DHT22;10980;49.596;6.142;2022-08-14T04:16:44;17.50;72.50
21637;DHT22;10980;49.596;6.142;2022-08-14T04:20:09;17.60;72.40
21637;DHT22;10980;49.596;6.142;2022-08-14T04:23:33;17.90;71.90
21637;DHT22;10980;49.596;6.142;2022-08-14T04:26:54;17.90;71.50
21637;DHT22;10980;49.596;6.142;2022-08-14T04:30:16;18.00;71.40
21637;DHT22;10980;49.596;6.142;2022-08-14T04:33:53;17.80;72.10
21637;DHT22;10980;49.596;6.142;2022-08-14T04:37:22;17.90;71.60
21637;DHT22;10980;49.596;6.142;2022-08-14T04:41:03;17.90;71.90
21637;DHT22;10980;49.596;6.142;2022-08-14T04:44:43;17.40;73.00
21637;DHT22;10980;49.596;6.142;2022-08-14T04:48:14;17.70;72.00
21637;DHT22;10980;49.596;6.142;2022-08-14T04:51:57;17.80;71.30
21637;DHT22;10980;49.596;6.142;2022-08-14T04:55:23;17.60;71.30
21637;DHT22;10980;49.596;6.142;2022-08-14T04:58:52;17.70;71.60
21637;DHT22;10980;49.596;6.142;2022-08-14T05:02:18;17.80;71.60
21637;DHT22;10980;49.596;6.142;2022-08-14T05:05:49;17.50;71.90
21637;DHT22;10980;49.596;6.142;2022-08-14T05:09:15;17.60;72.90
21637;DHT22;10980;49.596;6.142;2022-08-14T05:12:37;17.70;71.50
21637;DHT22;10980;49.596;6.142;2022-08-14T05:16:20;17.60;71.90
21637;DHT22;10980;49.596;6.142;2022-08-14T05:19:42;17.80;71.40
21637;DHT22;10980;49.596;6.142;2022-08-14T05:23:31;17.60;71.90
21637;DHT22;10980;49.596;6.142;2022-08-14T05:26:53;17.60;72.10
21637;DHT22;10980;49.596;6.142;2022-08-14T05:30:15;17.70;71.60
21637;DHT22;10980;49.596;6.142;2022-08-14T05:33:39;17.70;71.60
21637;DHT22;10980;49.596;6.142;2022-08-14T05:37:01;18.00;71.30
21637;DHT22;10980;49.596;6.142;2022-08-14T05:40:27;18.10;70.70
21637;DHT22;10980;49.596;6.142;2022-08-14T05:43:49;17.70;72.00
21637;DHT22;10980;49.596;6.142;2022-08-14T05:47:11;17.90;71.40
21637;DHT22;10980;49.596;6.142;2022-08-14T05:50:36;17.60;72.20
21637;DHT22;10980;49.596;6.142;2022-08-14T05:53:58;18.60;74.10
21637;DHT22;10980;49.596;6.142;2022-08-14T05:57:53;18.70;69.40
21637;DHT22;10980;49.596;6.142;2022-08-14T06:01:20;18.70;69.20
21637;DHT22;10980;49.596;6.142;2022-08-14T06:04:44;19.00;68.90
21637;DHT22;10980;49.596;6.142;2022-08-14T06:08:16;19.10;68.50
21637;DHT22;10980;49.596;6.142;2022-08-14T06:11:56;19.20;68.00
21637;DHT22;10980;49.596;6.142;2022-08-14T06:15:18;19.20;67.90
21637;DHT22;10980;49.596;6.142;2022-08-14T06:18:41;19.40;67.40
21637;DHT22;10980;49.596;6.142;2022-08-14T06:22:03;19.70;68.50
21637;DHT22;10980;49.596;6.142;2022-08-14T06:25:25;20.10;67.10
21637;DHT22;10980;49.596;6.142;2022-08-14T06:28:49;20.10;66.80
21637;DHT22;10980;49.596;6.142;2022-08-14T06:32:13;20.30;66.80
21637;DHT22;10980;49.596;6.142;2022-08-14T06:35:54;20.30;66.90
21637;DHT22;10980;49.596;6.142;2022-08-14T06:39:16;20.20;67.00
21637;DHT22;10980;49.596;6.142;2022-08-14T06:42:59;20.20;67.20
21637;DHT22;10980;49.596;6.142;2022-08-14T06:46:27;20.30;67.90
21637;DHT22;10980;49.596;6.142;2022-08-14T06:49:57;20.50;67.20
21637;DHT22;10980;49.596;6.142;2022-08-14T06:53:21;20.90;66.60
21637;DHT22;10980;49.596;6.142;2022-08-14T06:56:49;21.10;66.20
21637;DHT22;10980;49.596;6.142;2022-08-14T07:00:21;21.30;65.60
21637;DHT22;10980;49.596;6.142;2022-08-14T07:03:48;21.40;65.70
21637;DHT22;10980;49.596;6.142;2022-08-14T07:07:44;21.60;65.00
21637;DHT22;10980;49.596;6.142;2022-08-14T07:11:06;21.70;64.70
21637;DHT22;10980;49.596;6.142;2022-08-14T07:14:30;21.80;64.70
21637;DHT22;10980;49.596;6.142;2022-08-14T07:17:52;22.00;63.70
21637;DHT22;10980;49.596;6.142;2022-08-14T07:21:14;22.00;63.50
21637;DHT22;10980;49.596;6.142;2022-08-14T07:24:36;22.10;63.40
21637;DHT22;10980;49.596;6.142;2022-08-14T07:27:59;22.00;63.80
21637;DHT22;10980;49.596;6.142;2022-08-14T07:31:21;22.00;63.90
21637;DHT22;10980;49.596;6.142;2022-08-14T07:34:43;22.10;63.40
21637;DHT22;10980;49.596;6.142;2022-08-14T07:38:06;22.10;63.00
21637;DHT22;10980;49.596;6.142;2022-08-14T07:41:29;22.20;63.10
21637;DHT22;10980;49.596;6.142;2022-08-14T07:44:56;22.40;62.90
21637;DHT22;10980;49.596;6.142;2022-08-14T07:48:18;22.60;62.10
21637;DHT22;10980;49.596;6.142;2022-08-14T07:51:46;22.70;62.40
21637;DHT22;10980;49.596;6.142;2022-08-14T07:55:12;22.90;61.70
21637;DHT22;10980;49.596;6.142;2022-08-14T07:58:40;23.10;60.70
21637;DHT22;10980;49.596;6.142;2022-08-14T08:02:16;23.30;60.10
21637;DHT22;10980;49.596;6.142;2022-08-14T08:05:41;23.50;59.60
21637;DHT22;10980;49.596;6.142;2022-08-14T08:09:03;23.80;58.60
21637;DHT22;10980;49.596;6.142;2022-08-14T08:12:29;24.00;58.00
21637;DHT22;10980;49.596;6.142;2022-08-14T08:15:55;24.00;58.10
21637;DHT22;10980;49.596;6.142;2022-08-14T08:19:18;24.10;58.30
21637;DHT22;10980;49.596;6.142;2022-08-14T08:22:40;24.40;57.90
21637;DHT22;10980;49.596;6.142;2022-08-14T08:26:08;24.60;57.00
21637;DHT22;10980;49.596;6.142;2022-08-14T08:29:30;24.70;56.90
21637;DHT22;10980;49.596;6.142;2022-08-14T08:32:53;24.70;57.30
21637;DHT22;10980;49.596;6.142;2022-08-14T08:36:15;24.80;56.80
21637;DHT22;10980;49.596;6.142;2022-08-14T08:39:47;25.00;56.70
21637;DHT22;10980;49.596;6.142;2022-08-14T08:43:30;25.30;56.60
21637;DHT22;10980;49.596;6.142;2022-08-14T08:46:58;25.30;56.00
21637;DHT22;10980;49.596;6.142;2022-08-14T08:50:28;25.20;55.80
21637;DHT22;10980;49.596;6.142;2022-08-14T08:54:15;25.20;56.00
21637;DHT22;10980;49.596;6.142;2022-08-14T08:57:40;25.20;55.60
21637;DHT22;10980;49.596;6.142;2022-08-14T09:01:03;25.10;56.30
21637;DHT22;10980;49.596;6.142;2022-08-14T09:04:28;25.30;55.40
21637;DHT22;10980;49.596;6.142;2022-08-14T09:07:50;25.40;54.80
21637;DHT22;10980;49.596;6.142;2022-08-14T09:11:18;25.40;54.10
21637;DHT22;10980;49.596;6.142;2022-08-14T09:14:42;25.50;54.00
21637;DHT22;10980;49.596;6.142;2022-08-14T09:18:06;25.30;53.90
21637;DHT22;10980;49.596;6.142;2022-08-14T09:21:29;25.40;52.90
21637;DHT22;10980;49.596;6.142;2022-08-14T09:24:53;25.40;52.60
21637;DHT22;10980;49.596;6.142;2022-08-14T09:28:17;25.60;52.70
21637;DHT22;10980;49.596;6.142;2022-08-14T09:31:43;25.90;51.50
21637;DHT22;10980;49.596;6.142;2022-08-14T09:43:07;26.40;50.00
21637;DHT22;10980;49.596;6.142;2022-08-14T09:46:32;26.40;49.50
21637;DHT22;10980;49.596;6.142;2022-08-14T09:49:55;26.80;46.60
21637;DHT22;10980;49.596;6.142;2022-08-14T09:53:37;27.00;46.90
21637;DHT22;10980;49.596;6.142;2022-08-14T09:57:26;27.00;46.60
21637;DHT22;10980;49.596;6.142;2022-08-14T10:00:51;27.10;47.60
21637;DHT22;10980;49.596;6.142;2022-08-14T10:04:25;27.20;47.50
21637;DHT22;10980;49.596;6.142;2022-08-14T10:07:57;27.30;46.10
21637;DHT22;10980;49.596;6.142;2022-08-14T10:11:23;27.40;46.30
21637;DHT22;10980;49.596;6.142;2022-08-14T10:14:55;27.60;46.20
21637;DHT22;10980;49.596;6.142;2022-08-14T10:18:26;27.50;46.30
21637;DHT22;10980;49.596;6.142;2022-08-14T10:21:59;27.50;45.70
21637;DHT22;10980;49.596;6.142;2022-08-14T10:25:47;27.50;45.40
21637;DHT22;10980;49.596;6.142;2022-08-14T10:29:11;27.50;45.70
21637;DHT22;10980;49.596;6.142;2022-08-14T10:32:45;27.40;45.10
21637;DHT22;10980;49.596;6.142;2022-08-14T10:36:12;27.50;44.80
21637;DHT22;10980;49.596;6.142;2022-08-14T10:40:01;27.50;45.00
21637;DHT22;10980;49.596;6.142;2022-08-14T10:43:31;27.60;45.00
21637;DHT22;10980;49.596;6.142;2022-08-14T10:46:56;27.60;44.80
21637;DHT22;10980;49.596;6.142;2022-08-14T10:50:43;27.60;44.70
21637;DHT22;10980;49.596;6.142;2022-08-14T10:54:11;27.50;45.20
21637;DHT22;10980;49.596;6.142;2022-08-14T10:57:54;27.40;45.50
21637;DHT22;10980;49.596;6.142;2022-08-14T11:01:30;27.50;45.90
21637;DHT22;10980;49.596;6.142;2022-08-14T11:08:32;27.80;45.50
21637;DHT22;10980;49.596;6.142;2022-08-14T11:11:54;28.00;45.60
21637;DHT22;10980;49.596;6.142;2022-08-14T11:15:39;28.20;44.80
21637;DHT22;10980;49.596;6.142;2022-08-14T11:19:02;28.30;43.80
21637;DHT22;10980;49.596;6.142;2022-08-14T11:22:27;28.30;43.90
21637;DHT22;10980;49.596;6.142;2022-08-14T11:26:15;28.50;43.30
21637;DHT22;10980;49.596;6.142;2022-08-14T11:29:41;28.60;43.60
21637;DHT22;10980;49.596;6.142;2022-08-14T11:33:03;28.70;43.60
21637;DHT22;10980;49.596;6.142;2022-08-14T11:36:27;29.00;42.90
21637;DHT22;10980;49.596;6.142;2022-08-14T11:40:15;29.20;42.80
21637;DHT22;10980;49.596;6.142;2022-08-14T11:43:49;29.50;42.20
21637;DHT22;10980;49.596;6.142;2022-08-14T11:47:19;29.90;41.10
21637;DHT22;10980;49.596;6.142;2022-08-14T11:50:41;30.30;40.40
21637;DHT22;10980;49.596;6.142;2022-08-14T11:54:05;30.70;40.00
21637;DHT22;10980;49.596;6.142;2022-08-14T11:57:28;30.80;39.50
21637;DHT22;10980;49.596;6.142;2022-08-14T12:00:54;30.70;38.90
21637;DHT22;10980;49.596;6.142;2022-08-14T12:04:21;30.70;38.70
21637;DHT22;10980;49.596;6.142;2022-08-14T12:07:54;30.90;39.10
21637;DHT22;10980;49.596;6.142;2022-08-14T12:11:15;31.10;38.70
21637;DHT22;10980;49.596;6.142;2022-08-14T12:14:50;31.40;38.50
21637;DHT22;10980;49.596;6.142;2022-08-14T12:18:28;31.40;37.60
21637;DHT22;10980;49.596;6.142;2022-08-14T12:21:50;31.60;38.10
21637;DHT22;10980;49.596;6.142;2022-08-14T12:25:19;31.70;37.60
21637;DHT22;10980;49.596;6.142;2022-08-14T12:28:51;31.70;36.50
21637;DHT22;10980;49.596;6.142;2022-08-14T12:32:21;31.80;37.30
21637;DHT22;10980;49.596;6.142;2022-08-14T12:35:43;31.90;36.90
21637;DHT22;10980;49.596;6.142;2022-08-14T12:39:18;32.10;36.60
21637;DHT22;10980;49.596;6.142;2022-08-14T12:42:42;32.20;36.20
21637;DHT22;10980;49.596;6.142;2022-08-14T12:46:26;32.30;36.20
21637;DHT22;10980;49.596;6.142;2022-08-14T12:49:50;32.20;36.60
21637;DHT22;10980;49.596;6.142;2022-08-14T12:53:13;32.10;36.50
21637;DHT22;10980;49.596;6.142;2022-08-14T12:56:38;32.10;36.90
21637;DHT22;10980;49.596;6.142;2022-08-14T13:00:13;31.80;37.50
21637;DHT22;10980;49.596;6.142;2022-08-14T13:03:44;31.80;37.80
21637;DHT22;10980;49.596;6.142;2022-08-14T13:07:06;31.90;36.00
21637;DHT22;10980;49.596;6.142;2022-08-14T13:10:32;32.00;35.80
21637;DHT22;10980;49.596;6.142;2022-08-14T13:14:15;31.80;36.10
21637;DHT22;10980;49.596;6.142;2022-08-14T13:17:49;32.10;35.30
21637;DHT22;10980;49.596;6.142;2022-08-14T13:21:12;32.40;34.70
21637;DHT22;10980;49.596;6.142;2022-08-14T13:24:38;32.50;34.20
21637;DHT22;10980;49.596;6.142;2022-08-14T13:28:01;32.70;34.30
21637;DHT22;10980;49.596;6.142;2022-08-14T13:31:24;33.40;34.30
21637;DHT22;10980;49.596;6.142;2022-08-14T13:34:51;34.10;33.20
21637;DHT22;10980;49.596;6.142;2022-08-14T13:38:18;35.00;32.30
21637;DHT22;10980;49.596;6.142;2022-08-14T13:41:42;35.40;31.10
21637;DHT22;10980;49.596;6.142;2022-08-14T13:45:08;35.70;31.00
21637;DHT22;10980;49.596;6.142;2022-08-14T13:48:31;35.20;30.40
21637;DHT22;10980;49.596;6.142;2022-08-14T13:51:58;34.90;30.00
21637;DHT22;10980;49.596;6.142;2022-08-14T13:55:35;34.90;29.90
21637;DHT22;10980;49.596;6.142;2022-08-14T13:58:57;34.30;30.00
21637;DHT22;10980;49.596;6.142;2022-08-14T14:02:20;34.10;30.50
21637;DHT22;10980;49.596;6.142;2022-08-14T14:05:54;34.70;30.30
21637;DHT22;10980;49.596;6.142;2022-08-14T14:09:26;34.90;30.40
21637;DHT22;10980;49.596;6.142;2022-08-14T14:13:09;35.80;29.60
21637;DHT22;10980;49.596;6.142;2022-08-14T14:16:31;36.20;28.60
21637;DHT22;10980;49.596;6.142;2022-08-14T14:19:53;37.20;28.20
21637;DHT22;10980;49.596;6.142;2022-08-14T14:23:15;37.90;27.70
21637;DHT22;10980;49.596;6.142;2022-08-14T14:26:38;38.40;27.20
21637;DHT22;10980;49.596;6.142;2022-08-14T14:30:00;38.40;26.80
21637;DHT22;10980;49.596;6.142;2022-08-14T14:33:42;38.50;26.80
21637;DHT22;10980;49.596;6.142;2022-08-14T14:37:12;37.50;26.10
21637;DHT22;10980;49.596;6.142;2022-08-14T14:40:36;37.70;26.10
21637;DHT22;10980;49.596;6.142;2022-08-14T14:44:19;37.60;26.50
21637;DHT22;10980;49.596;6.142;2022-08-14T14:47:54;38.50;26.00
21637;DHT22;10980;49.596;6.142;2022-08-14T14:51:20;38.60;25.40
21637;DHT22;10980;49.596;6.142;2022-08-14T14:54:43;38.70;25.50
21637;DHT22;10980;49.596;6.142;2022-08-14T14:58:07;39.30;25.10
21637;DHT22;10980;49.596;6.142;2022-08-14T15:01:35;39.80;24.80
21637;DHT22;10980;49.596;6.142;2022-08-14T15:04:57;40.20;24.50
21637;DHT22;10980;49.596;6.142;2022-08-14T15:08:19;39.70;24.70
21637;DHT22;10980;49.596;6.142;2022-08-14T15:12:01;38.80;25.30
21637;DHT22;10980;49.596;6.142;2022-08-14T15:15:37;38.10;25.70
21637;DHT22;10980;49.596;6.142;2022-08-14T15:19:00;37.90;26.00
21637;DHT22;10980;49.596;6.142;2022-08-14T15:22:22;37.30;25.90
21637;DHT22;10980;49.596;6.142;2022-08-14T15:25:46;36.00;27.40
21637;DHT22;10980;49.596;6.142;2022-08-14T15:29:13;35.90;27.70
21637;DHT22;10980;49.596;6.142;2022-08-14T15:32:35;34.60;28.70
21637;DHT22;10980;49.596;6.142;2022-08-14T15:35:58;34.30;28.80
21637;DHT22;10980;49.596;6.142;2022-08-14T15:39:22;33.70;29.20
21637;DHT22;10980;49.596;6.142;2022-08-14T15:42:45;33.90;28.80
21637;DHT22;10980;49.596;6.142;2022-08-14T15:46:07;33.90;28.50
21637;DHT22;10980;49.596;6.142;2022-08-14T15:49:49;33.40;28.60
21637;DHT22;10980;49.596;6.142;2022-08-14T15:53:17;33.30;28.40
21637;DHT22;10980;49.596;6.142;2022-08-14T15:56:41;33.40;28.10
21637;DHT22;10980;49.596;6.142;2022-08-14T16:00:07;32.90;28.10
21637;DHT22;10980;49.596;6.142;2022-08-14T16:04:04;32.60;28.50
21637;DHT22;10980;49.596;6.142;2022-08-14T16:07:27;32.80;29.10
21637;DHT22;10980;49.596;6.142;2022-08-14T16:10:49;32.80;29.00
21637;DHT22;10980;49.596;6.142;2022-08-14T16:14:11;32.40;29.70
21637;DHT22;10980;49.596;6.142;2022-08-14T16:17:41;32.40;29.70
21637;DHT22;10980;49.596;6.142;2022-08-14T16:21:08;32.30;29.70
21637;DHT22;10980;49.596;6.142;2022-08-14T16:24:34;32.40;29.80
21637;DHT22;10980;49.596;6.142;2022-08-14T16:28:17;32.50;29.60
21637;DHT22;10980;49.596;6.142;2022-08-14T16:31:49;32.60;29.50
21637;DHT22;10980;49.596;6.142;2022-08-14T16:35:13;32.60;29.70
21637;DHT22;10980;49.596;6.142;2022-08-14T16:38:40;32.40;29.80
21637;DHT22;10980;49.596;6.142;2022-08-14T16:42:09;32.30;30.00
21637;DHT22;10980;49.596;6.142;2022-08-14T16:45:51;32.20;30.30
21637;DHT22;10980;49.596;6.142;2022-08-14T16:49:15;31.40;31.30
21637;DHT22;10980;49.596;6.142;2022-08-14T16:52:38;31.90;31.20
21637;DHT22;10980;49.596;6.142;2022-08-14T16:56:20;32.00;31.40
21637;DHT22;10980;49.596;6.142;2022-08-14T16:59:45;31.70;31.50
21637;DHT22;10980;49.596;6.142;2022-08-14T17:03:19;31.60;31.80
21637;DHT22;10980;49.596;6.142;2022-08-14T17:06:51;31.50;32.00
21637;DHT22;10980;49.596;6.142;2022-08-14T17:10:14;31.20;32.40
21637;DHT22;10980;49.596;6.142;2022-08-14T17:13:41;30.70;32.80
21637;DHT22;10980;49.596;6.142;2022-08-14T17:24:41;30.60;33.30
21637;DHT22;10980;49.596;6.142;2022-08-14T17:28:23;30.70;33.00
21637;DHT22;10980;49.596;6.142;2022-08-14T17:32:13;30.50;33.30
21637;DHT22;10980;49.596;6.142;2022-08-14T17:36:15;30.00;34.10
21637;DHT22;10980;49.596;6.142;2022-08-14T17:40:03;30.30;34.10
21637;DHT22;10980;49.596;6.142;2022-08-14T17:43:36;30.40;33.90
21637;DHT22;10980;49.596;6.142;2022-08-14T17:47:04;30.20;34.60
21637;DHT22;10980;49.596;6.142;2022-08-14T17:50:47;30.00;34.90
21637;DHT22;10980;49.596;6.142;2022-08-14T17:54:22;30.00;35.00
21637;DHT22;10980;49.596;6.142;2022-08-14T17:57:55;29.60;35.80
21637;DHT22;10980;49.596;6.142;2022-08-14T18:01:18;29.20;36.80
21637;DHT22;10980;49.596;6.142;2022-08-14T18:04:46;29.20;37.40
21637;DHT22;10980;49.596;6.142;2022-08-14T18:08:13;29.00;38.00
21637;DHT22;10980;49.596;6.142;2022-08-14T18:11:58;29.00;38.50
21637;DHT22;10980;49.596;6.142;2022-08-14T18:15:24;29.10;38.80
21637;DHT22;10980;49.596;6.142;2022-08-14T18:18:58;29.00;39.30
21637;DHT22;10980;49.596;6.142;2022-08-14T18:22:25;28.80;40.10
21637;DHT22;10980;49.596;6.142;2022-08-14T18:25:59;28.60;40.90
21637;DHT22;10980;49.596;6.142;2022-08-14T18:29:26;28.50;41.30
21637;DHT22;10980;49.596;6.142;2022-08-14T18:32:53;28.40;41.60
21637;DHT22;10980;49.596;6.142;2022-08-14T18:43:43;28.20;42.60
21637;DHT22;10980;49.596;6.142;2022-08-14T18:47:22;28.10;42.60
21637;DHT22;10980;49.596;6.142;2022-08-14T18:50:52;27.90;43.50
21637;DHT22;10980;49.596;6.142;2022-08-14T18:54:28;27.80;43.80
21637;DHT22;10980;49.596;6.142;2022-08-14T19:01:24;28.10;44.20
21637;DHT22;10980;49.596;6.142;2022-08-14T19:04:46;28.10;44.40
21637;DHT22;10980;49.596;6.142;2022-08-14T19:11:44;27.70;46.10
21637;DHT22;10980;49.596;6.142;2022-08-14T19:15:21;27.60;46.80
21637;DHT22;10980;49.596;6.142;2022-08-14T19:18:53;27.20;48.30
21637;DHT22;10980;49.596;6.142;2022-08-14T19:22:28;27.00;50.10
21637;DHT22;10980;49.596;6.142;2022-08-14T19:25:58;27.20;50.20
21637;DHT22;10980;49.596;6.142;2022-08-14T19:29:28;27.10;51.20
21637;DHT22;10980;49.596;6.142;2022-08-14T19:32:58;27.00;51.60
21637;DHT22;10980;49.596;6.142;2022-08-14T19:36:58;27.10;51.10
21637;DHT22;10980;49.596;6.142;2022-08-14T19:44:05;26.90;51.80
21637;DHT22;10980;49.596;6.142;2022-08-14T19:47:36;27.10;50.90
21637;DHT22;10980;49.596;6.142;2022-08-14T19:51:18;27.00;51.80
21637;DHT22;10980;49.596;6.142;2022-08-14T19:54:42;27.00;52.70
21637;DHT22;10980;49.596;6.142;2022-08-14T19:58:05;26.50;55.80
21637;DHT22;10980;49.596;6.142;2022-08-14T20:01:30;26.40;56.90
21637;DHT22;10980;49.596;6.142;2022-08-14T20:04:59;26.40;58.80
21637;DHT22;10980;49.596;6.142;2022-08-14T20:08:24;25.90;60.80
21637;DHT22;10980;49.596;6.142;2022-08-14T20:12:06;25.90;61.00
21637;DHT22;10980;49.596;6.142;2022-08-14T20:15:56;26.00;61.50
21637;DHT22;10980;49.596;6.142;2022-08-14T20:19:24;25.70;62.00
21637;DHT22;10980;49.596;6.142;2022-08-14T20:22:50;25.60;62.40
21637;DHT22;10980;49.596;6.142;2022-08-14T20:26:20;25.70;62.90
21637;DHT22;10980;49.596;6.142;2022-08-14T20:34:03;25.00;65.60
21637;DHT22;10980;49.596;6.142;2022-08-14T20:37:27;24.80;67.60
21637;DHT22;10980;49.596;6.142;2022-08-14T20:41:02;25.00;68.20
21637;DHT22;10980;49.596;6.142;2022-08-14T20:44:27;24.80;70.60
21637;DHT22;10980;49.596;6.142;2022-08-14T20:48:23;23.90;79.80
21637;DHT22;10980;49.596;6.142;2022-08-14T20:52:08;23.10;92.50
21637;DHT22;10980;49.596;6.142;2022-08-14T20:55:41;22.70;96.50
21637;DHT22;10980;49.596;6.142;2022-08-14T21:02:38;22.90;88.90
21637;DHT22;10980;49.596;6.142;2022-08-14T21:10:13;22.50;91.40
21637;DHT22;10980;49.596;6.142;2022-08-14T21:13:53;22.60;91.40
21637;DHT22;10980;49.596;6.142;2022-08-14T21:17:35;22.70;90.10
21637;DHT22;10980;49.596;6.142;2022-08-14T21:21:01;22.40;90.10
21637;DHT22;10980;49.596;6.142;2022-08-14T21:24:28;22.50;90.40
21637;DHT22;10980;49.596;6.142;2022-08-14T21:28:10;22.50;90.20
21637;DHT22;10980;49.596;6.142;2022-08-14T21:31:51;22.50;89.80
21637;DHT22;10980;49.596;6.142;2022-08-14T21:35:17;23.00;87.80
21637;DHT22;10980;49.596;6.142;2022-08-14T21:38:43;23.20;86.60
21637;DHT22;10980;49.596;6.142;2022-08-14T21:42:06;23.40;86.90
21637;DHT22;10980;49.596;6.142;2022-08-14T21:45:31;23.40;85.80
21637;DHT22;10980;49.596;6.142;2022-08-14T21:48:58;23.40;85.80
21637;DHT22;10980;49.596;6.142;2022-08-14T21:52:27;23.40;86.50
21637;DHT22;10980;49.596;6.142;2022-08-14T21:56:09;23.40;85.10
21637;DHT22;10980;49.596;6.142;2022-08-14T21:59:33;23.50;85.70
21637;DHT22;10980;49.596;6.142;2022-08-14T22:02:56;23.00;86.60
21637;DHT22;10980;49.596;6.142;2022-08-14T22:06:20;23.10;86.50
21637;DHT22;10980;49.596;6.142;2022-08-14T22:09:49;23.20;85.70
21637;DHT22;10980;49.596;6.142;2022-08-14T22:13:19;23.10;86.10
21637;DHT22;10980;49.596;6.142;2022-08-14T22:16:43;23.30;85.50
21637;DHT22;10980;49.596;6.142;2022-08-14T22:20:26;23.30;84.70
21637;DHT22;10980;49.596;6.142;2022-08-14T22:23:50;23.30;85.80
21637;DHT22;10980;49.596;6.142;2022-08-14T22:27:12;23.40;84.90
21637;DHT22;10980;49.596;6.142;2022-08-14T22:30:35;23.50;86.00
21637;DHT22;10980;49.596;6.142;2022-08-14T22:33:57;23.20;85.30
21637;DHT22;10980;49.596;6.142;2022-08-14T22:37:20;23.00;85.30
21637;DHT22;10980;49.596;6.142;2022-08-14T22:40:44;23.20;86.30
21637;DHT22;10980;49.596;6.142;2022-08-14T22:44:32;23.10;85.90
21637;DHT22;10980;49.596;6.142;2022-08-14T22:47:56;22.80;87.10